AZU1809 SBCF-SBSG
Flight info
| Callsign | AZU1809 |
|---|---|
| Flight time | N/A |
| Altitude | 39000 |
| Route | ILPIR UZ72 EDNES UN866 DIMOD DCT TOSAD |
| Aircraft | A20N/M-SDE2E3FGHIRWXY/LB1 |
Departure
| Time | N/A |
|---|---|
| Airport | Tancredo Neves International Airport (SBCF) |
Arrival
| Time | 2026-05-03 23:57 |
|---|---|
| Airport | Rio Grande do Norte/São Gonçalo do Amarante–Governador Aluízio Alves International Airport (SBSG) |
| Time | Latitude | Longitude | Altitude | Speed | Heading |
|---|---|---|---|---|---|
| 2026-05-03 21:56 | -18.58717 | -43.19608 | 35251 ft | 402 kts | 17° |
| 2026-05-03 21:56 | -18.56039 | -43.18734 | 35471 ft | 404 kts | 17° |
| 2026-05-03 21:56 | -18.54437 | -43.18209 | 35597 ft | 405 kts | 17° |
| 2026-05-03 21:56 | -18.52960 | -43.17725 | 35701 ft | 407 kts | 17° |
| 2026-05-03 21:57 | -18.50253 | -43.16837 | 35909 ft | 408 kts | 17° |
| 2026-05-03 21:57 | -18.47537 | -43.15945 | 36142 ft | 409 kts | 17° |
| 2026-05-03 21:57 | -18.44812 | -43.15050 | 36354 ft | 411 kts | 17° |
| 2026-05-03 21:57 | -18.42077 | -43.14153 | 36515 ft | 414 kts | 17° |
| 2026-05-03 21:58 | -18.39320 | -43.13248 | 36672 ft | 416 kts | 17° |
| 2026-05-03 21:58 | -18.36590 | -43.12219 | 36856 ft | 418 kts | 20° |
| 2026-05-03 21:58 | -18.33861 | -43.11141 | 37000 ft | 421 kts | 20° |
| 2026-05-03 21:58 | -18.31103 | -43.10054 | 37001 ft | 427 kts | 20° |
| 2026-05-03 21:59 | -18.25495 | -43.07851 | 37001 ft | 440 kts | 20° |
| 2026-05-03 21:59 | -18.19676 | -43.05567 | 37000 ft | 452 kts | 20° |
| 2026-05-03 22:00 | -18.13747 | -43.03240 | 37000 ft | 455 kts | 20° |
| 2026-05-03 22:00 | -18.07836 | -43.00922 | 37000 ft | 457 kts | 20° |
| 2026-05-03 22:01 | -18.01902 | -42.98597 | 37000 ft | 455 kts | 20° |
| 2026-05-03 22:01 | -17.95964 | -42.96272 | 37000 ft | 456 kts | 20° |
| 2026-05-03 22:02 | -17.90031 | -42.93950 | 37000 ft | 455 kts | 20° |
| 2026-05-03 22:02 | -17.84098 | -42.91630 | 37000 ft | 455 kts | 20° |
| 2026-05-03 22:03 | -17.78200 | -42.89326 | 37000 ft | 455 kts | 20° |
| 2026-05-03 22:03 | -17.72276 | -42.87013 | 37000 ft | 454 kts | 20° |
| 2026-05-03 22:04 | -17.66341 | -42.84697 | 37000 ft | 455 kts | 20° |
| 2026-05-03 22:04 | -17.60411 | -42.82385 | 37000 ft | 454 kts | 20° |
| 2026-05-03 22:05 | -17.54491 | -42.80078 | 37000 ft | 453 kts | 20° |
| 2026-05-03 22:05 | -17.48808 | -42.77866 | 37000 ft | 454 kts | 20° |
| 2026-05-03 22:06 | -17.42893 | -42.75565 | 37000 ft | 453 kts | 20° |
| 2026-05-03 22:06 | -17.36977 | -42.73268 | 37000 ft | 454 kts | 20° |
| 2026-05-03 22:07 | -17.31053 | -42.70968 | 37000 ft | 454 kts | 20° |
| 2026-05-03 22:07 | -17.25127 | -42.68669 | 37000 ft | 454 kts | 20° |
| 2026-05-03 22:08 | -17.19136 | -42.66347 | 37000 ft | 465 kts | 20° |
| 2026-05-03 22:08 | -17.13032 | -42.63983 | 37000 ft | 470 kts | 20° |
| 2026-05-03 22:09 | -17.06948 | -42.61628 | 37000 ft | 469 kts | 20° |
| 2026-05-03 22:10 | -16.97764 | -42.58075 | 37000 ft | 469 kts | 20° |
| 2026-05-03 22:10 | -16.91636 | -42.55707 | 37000 ft | 469 kts | 20° |
| 2026-05-03 22:11 | -16.85511 | -42.53342 | 37000 ft | 470 kts | 20° |
| 2026-05-03 22:11 | -16.79364 | -42.50969 | 37000 ft | 471 kts | 20° |
| 2026-05-03 22:12 | -16.73277 | -42.48622 | 37000 ft | 471 kts | 20° |
| 2026-05-03 22:12 | -16.67150 | -42.46261 | 37000 ft | 468 kts | 20° |
| 2026-05-03 22:13 | -16.61079 | -42.43921 | 37000 ft | 469 kts | 20° |
| 2026-05-03 22:13 | -16.54961 | -42.41559 | 37000 ft | 469 kts | 20° |
| 2026-05-03 22:14 | -16.48830 | -42.39200 | 37000 ft | 470 kts | 20° |
| 2026-05-03 22:14 | -16.42679 | -42.36836 | 37000 ft | 471 kts | 20° |
| 2026-05-03 22:15 | -16.36542 | -42.34479 | 37000 ft | 470 kts | 20° |
| 2026-05-03 22:15 | -16.30446 | -42.32139 | 37000 ft | 469 kts | 20° |
| 2026-05-03 22:16 | -16.24329 | -42.29792 | 37000 ft | 469 kts | 20° |
| 2026-05-03 22:16 | -16.18205 | -42.27445 | 37000 ft | 469 kts | 20° |
| 2026-05-03 22:17 | -16.12225 | -42.24724 | 37000 ft | 470 kts | 26° |
| 2026-05-03 22:17 | -16.06350 | -42.21735 | 37000 ft | 469 kts | 26° |
| 2026-05-03 22:18 | -16.00480 | -42.18758 | 37000 ft | 470 kts | 26° |
| 2026-05-03 22:18 | -15.94601 | -42.15778 | 37000 ft | 470 kts | 26° |
| 2026-05-03 22:19 | -15.88712 | -42.12795 | 37000 ft | 471 kts | 26° |
| 2026-05-03 22:19 | -15.82822 | -42.09812 | 37000 ft | 471 kts | 26° |
| 2026-05-03 22:20 | -15.77918 | -42.07331 | 37000 ft | 472 kts | 26° |
| 2026-05-03 22:20 | -15.71066 | -42.03867 | 37000 ft | 471 kts | 26° |
| 2026-05-03 22:21 | -15.65170 | -42.00888 | 37000 ft | 471 kts | 26° |
| 2026-05-03 22:21 | -15.60229 | -41.98394 | 37000 ft | 471 kts | 26° |
| 2026-05-03 22:22 | -15.53381 | -41.94938 | 37000 ft | 471 kts | 26° |
| 2026-05-03 22:22 | -15.48475 | -41.92465 | 37000 ft | 472 kts | 26° |
| 2026-05-03 22:23 | -15.42574 | -41.89491 | 37000 ft | 472 kts | 26° |
| 2026-05-03 22:23 | -15.36664 | -41.86514 | 37000 ft | 472 kts | 26° |
| 2026-05-03 22:24 | -15.30754 | -41.83540 | 37000 ft | 472 kts | 26° |
| 2026-05-03 22:24 | -15.24840 | -41.80565 | 37000 ft | 473 kts | 26° |
| 2026-05-03 22:25 | -15.18922 | -41.77590 | 37000 ft | 473 kts | 26° |
| 2026-05-03 22:25 | -15.13046 | -41.74639 | 37000 ft | 473 kts | 26° |
| 2026-05-03 22:26 | -15.07132 | -41.71669 | 37000 ft | 472 kts | 26° |
| 2026-05-03 22:26 | -15.01221 | -41.68704 | 37000 ft | 471 kts | 26° |
| 2026-05-03 22:27 | -14.95328 | -41.65748 | 37000 ft | 470 kts | 25° |
| 2026-05-03 22:27 | -14.89443 | -41.62799 | 37000 ft | 470 kts | 25° |
| 2026-05-03 22:28 | -14.83559 | -41.59853 | 37000 ft | 470 kts | 25° |
| 2026-05-03 22:28 | -14.77674 | -41.56907 | 37000 ft | 470 kts | 25° |
| 2026-05-03 22:29 | -14.71787 | -41.53962 | 37000 ft | 470 kts | 25° |
| 2026-05-03 22:29 | -14.65929 | -41.51034 | 37000 ft | 471 kts | 25° |
| 2026-05-03 22:30 | -14.60040 | -41.48092 | 37000 ft | 471 kts | 25° |
| 2026-05-03 22:30 | -14.54141 | -41.45146 | 37001 ft | 471 kts | 25° |
| 2026-05-03 22:31 | -14.48246 | -41.42204 | 37000 ft | 470 kts | 25° |
| 2026-05-03 22:31 | -14.42355 | -41.39267 | 37000 ft | 470 kts | 25° |
| 2026-05-03 22:32 | -14.36463 | -41.36330 | 37000 ft | 470 kts | 25° |
| 2026-05-03 22:32 | -14.30613 | -41.33416 | 37000 ft | 469 kts | 25° |
| 2026-05-03 22:33 | -14.24723 | -41.30484 | 37000 ft | 471 kts | 25° |
| 2026-05-03 22:33 | -14.18839 | -41.27556 | 37000 ft | 468 kts | 25° |
| 2026-05-03 22:34 | -14.12973 | -41.24639 | 37000 ft | 468 kts | 25° |
| 2026-05-03 22:34 | -14.09117 | -41.22722 | 37000 ft | 468 kts | 25° |
| 2026-05-03 22:36 | -14.03611 | -41.19987 | 37000 ft | 469 kts | 25° |
| 2026-05-03 22:37 | -13.97738 | -41.17071 | 37000 ft | 469 kts | 25° |
| 2026-05-03 22:37 | -13.91854 | -41.14151 | 37000 ft | 469 kts | 25° |
| 2026-05-03 22:38 | -13.85978 | -41.11237 | 37000 ft | 469 kts | 25° |
| 2026-05-03 22:38 | -13.80109 | -41.08328 | 37000 ft | 468 kts | 25° |
| 2026-05-03 22:39 | -13.74362 | -41.05481 | 37000 ft | 468 kts | 25° |
| 2026-05-03 22:39 | -13.68491 | -41.02574 | 37000 ft | 468 kts | 25° |
| 2026-05-03 22:40 | -13.62617 | -40.99667 | 37000 ft | 469 kts | 25° |
| 2026-05-03 22:40 | -13.56728 | -40.96755 | 37000 ft | 469 kts | 25° |
| 2026-05-03 22:41 | -13.50848 | -40.93848 | 37000 ft | 469 kts | 25° |
| 2026-05-03 22:41 | -13.45006 | -40.90962 | 37000 ft | 469 kts | 25° |
| 2026-05-03 22:42 | -13.39121 | -40.88056 | 37000 ft | 469 kts | 25° |
| 2026-05-03 22:42 | -13.33230 | -40.85149 | 37000 ft | 470 kts | 25° |
| 2026-05-03 22:43 | -13.27346 | -40.82247 | 37000 ft | 470 kts | 25° |
| 2026-05-03 22:43 | -13.21452 | -40.79342 | 37000 ft | 469 kts | 25° |
| 2026-05-03 22:44 | -13.15571 | -40.76444 | 37001 ft | 469 kts | 25° |
| 2026-05-03 22:44 | -13.09737 | -40.73571 | 37000 ft | 468 kts | 25° |
| 2026-05-03 22:45 | -13.03865 | -40.70681 | 37000 ft | 468 kts | 25° |
| 2026-05-03 22:45 | -12.97998 | -40.67795 | 37000 ft | 468 kts | 25° |
| 2026-05-03 22:46 | -12.92128 | -40.64909 | 37000 ft | 468 kts | 25° |
| 2026-05-03 22:46 | -12.86251 | -40.62021 | 37001 ft | 469 kts | 25° |
| 2026-05-03 22:47 | -12.80366 | -40.59131 | 37000 ft | 468 kts | 25° |
| 2026-05-03 22:47 | -12.74534 | -40.56268 | 37000 ft | 468 kts | 25° |
| 2026-05-03 22:48 | -12.68657 | -40.53385 | 37000 ft | 468 kts | 25° |
| 2026-05-03 22:48 | -12.62774 | -40.50500 | 37000 ft | 470 kts | 25° |
| 2026-05-03 22:49 | -12.56875 | -40.47609 | 37000 ft | 470 kts | 25° |
| 2026-05-03 22:49 | -12.50996 | -40.44728 | 37000 ft | 468 kts | 25° |
| 2026-05-03 22:50 | -12.45115 | -40.41849 | 37000 ft | 468 kts | 25° |
| 2026-05-03 22:50 | -12.39287 | -40.38997 | 37000 ft | 468 kts | 25° |
| 2026-05-03 22:51 | -12.33406 | -40.36120 | 37000 ft | 468 kts | 25° |
| 2026-05-03 22:51 | -12.27526 | -40.33245 | 37000 ft | 468 kts | 25° |
| 2026-05-03 22:52 | -12.21654 | -40.30376 | 37000 ft | 468 kts | 25° |
| 2026-05-03 22:52 | -12.15772 | -40.27503 | 37000 ft | 468 kts | 25° |
| 2026-05-03 22:53 | -12.09894 | -40.24634 | 37000 ft | 468 kts | 25° |
| 2026-05-03 22:53 | -12.04056 | -40.21785 | 37000 ft | 468 kts | 25° |
| 2026-05-03 22:54 | -11.98176 | -40.18918 | 37000 ft | 468 kts | 25° |
| 2026-05-03 22:54 | -11.92289 | -40.16048 | 37000 ft | 469 kts | 25° |
| 2026-05-03 22:55 | -11.86400 | -40.13179 | 37000 ft | 469 kts | 25° |
| 2026-05-03 22:55 | -11.80506 | -40.10309 | 37000 ft | 468 kts | 25° |
| 2026-05-03 22:56 | -11.74668 | -40.07467 | 37000 ft | 468 kts | 25° |
| 2026-05-03 22:56 | -11.68786 | -40.04605 | 37000 ft | 469 kts | 25° |
| 2026-05-03 22:57 | -11.62898 | -40.01742 | 37000 ft | 469 kts | 25° |
| 2026-05-03 22:57 | -11.57011 | -39.98881 | 37000 ft | 469 kts | 25° |
| 2026-05-03 22:58 | -11.51122 | -39.96019 | 37000 ft | 469 kts | 25° |
| 2026-05-03 22:58 | -11.45278 | -39.93182 | 37000 ft | 468 kts | 25° |
| 2026-05-03 22:59 | -11.39394 | -39.90326 | 37000 ft | 469 kts | 25° |
| 2026-05-03 22:59 | -11.33506 | -39.87469 | 37000 ft | 469 kts | 25° |
| 2026-05-03 23:00 | -11.27622 | -39.84616 | 37000 ft | 468 kts | 25° |
| 2026-05-03 23:00 | -11.21737 | -39.81763 | 37000 ft | 468 kts | 25° |
| 2026-05-03 23:01 | -11.15849 | -39.78911 | 37000 ft | 468 kts | 25° |
| 2026-05-03 23:01 | -11.10009 | -39.76082 | 37000 ft | 468 kts | 25° |
| 2026-05-03 23:02 | -11.04129 | -39.73236 | 37000 ft | 468 kts | 25° |
| 2026-05-03 23:02 | -10.98251 | -39.70392 | 37000 ft | 468 kts | 25° |
| 2026-05-03 23:03 | -10.92370 | -39.67548 | 37000 ft | 468 kts | 25° |
| 2026-05-03 23:03 | -10.86488 | -39.64704 | 37000 ft | 468 kts | 25° |
| 2026-05-03 23:04 | -10.80606 | -39.61863 | 37000 ft | 468 kts | 25° |
| 2026-05-03 23:04 | -10.74722 | -39.59020 | 37000 ft | 468 kts | 25° |
| 2026-05-03 23:05 | -10.68840 | -39.56181 | 37001 ft | 468 kts | 25° |
| 2026-05-03 23:05 | -10.62991 | -39.53358 | 37000 ft | 468 kts | 25° |
| 2026-05-03 23:06 | -10.57102 | -39.50517 | 37000 ft | 469 kts | 25° |
| 2026-05-03 23:06 | -10.51208 | -39.47675 | 37001 ft | 469 kts | 25° |
| 2026-05-03 23:07 | -10.45309 | -39.44832 | 37000 ft | 469 kts | 25° |
| 2026-05-03 23:07 | -10.39417 | -39.41993 | 37000 ft | 469 kts | 25° |
| 2026-05-03 23:08 | -10.33523 | -39.39154 | 37000 ft | 469 kts | 25° |
| 2026-05-03 23:08 | -10.27626 | -39.36314 | 37000 ft | 469 kts | 25° |
| 2026-05-03 23:09 | -10.22031 | -39.32975 | 37000 ft | 471 kts | 32° |
| 2026-05-03 23:09 | -10.16515 | -39.29412 | 37000 ft | 469 kts | 32° |
| 2026-05-03 23:10 | -10.11005 | -39.25863 | 37000 ft | 469 kts | 32° |
| 2026-05-03 23:10 | -10.05492 | -39.22315 | 37000 ft | 469 kts | 32° |
| 2026-05-03 23:11 | -9.99980 | -39.18770 | 37000 ft | 469 kts | 32° |
| 2026-05-03 23:11 | -9.94470 | -39.15227 | 37000 ft | 469 kts | 32° |
| 2026-05-03 23:12 | -9.88962 | -39.11688 | 37000 ft | 468 kts | 32° |
| 2026-05-03 23:12 | -9.83490 | -39.08173 | 37000 ft | 469 kts | 32° |
| 2026-05-03 23:13 | -9.77976 | -39.04632 | 37000 ft | 469 kts | 32° |
| 2026-05-03 23:13 | -9.72458 | -39.01091 | 37000 ft | 469 kts | 32° |
| 2026-05-03 23:14 | -9.66947 | -38.97555 | 37000 ft | 469 kts | 32° |
| 2026-05-03 23:14 | -9.61431 | -38.94017 | 37000 ft | 469 kts | 32° |
| 2026-05-03 23:15 | -9.55912 | -38.90478 | 37000 ft | 469 kts | 32° |
| 2026-05-03 23:15 | -9.50397 | -38.86944 | 37000 ft | 469 kts | 32° |
| 2026-05-03 23:16 | -9.44918 | -38.83434 | 37000 ft | 469 kts | 32° |
| 2026-05-03 23:16 | -9.39401 | -38.79901 | 37000 ft | 469 kts | 32° |
| 2026-05-03 23:17 | -9.33882 | -38.76368 | 37000 ft | 469 kts | 32° |
| 2026-05-03 23:17 | -9.28355 | -38.72832 | 37000 ft | 470 kts | 32° |
| 2026-05-03 23:18 | -9.22836 | -38.69302 | 37000 ft | 469 kts | 32° |
| 2026-05-03 23:18 | -9.17316 | -38.65772 | 37000 ft | 469 kts | 32° |
| 2026-05-03 23:19 | -9.11828 | -38.62264 | 37000 ft | 470 kts | 32° |
| 2026-05-03 23:19 | -9.06306 | -38.58736 | 37000 ft | 469 kts | 32° |
| 2026-05-03 23:20 | -9.00791 | -38.55214 | 37000 ft | 469 kts | 32° |
| 2026-05-03 23:20 | -8.95278 | -38.51694 | 37000 ft | 468 kts | 32° |
| 2026-05-03 23:21 | -8.89770 | -38.48178 | 37000 ft | 468 kts | 32° |
| 2026-05-03 23:21 | -8.84263 | -38.44665 | 37000 ft | 468 kts | 32° |
| 2026-05-03 23:22 | -8.76038 | -38.39420 | 37000 ft | 468 kts | 32° |
| 2026-05-03 23:22 | -8.70527 | -38.35907 | 37000 ft | 468 kts | 32° |
| 2026-05-03 23:23 | -8.65009 | -38.32391 | 37000 ft | 469 kts | 32° |
| 2026-05-03 23:23 | -8.59497 | -38.28880 | 37000 ft | 468 kts | 32° |
| 2026-05-03 23:24 | -8.53983 | -38.25369 | 37000 ft | 469 kts | 32° |
| 2026-05-03 23:24 | -8.48501 | -38.21880 | 37000 ft | 469 kts | 32° |
| 2026-05-03 23:25 | -8.42979 | -38.18366 | 37000 ft | 469 kts | 32° |
| 2026-05-03 23:25 | -8.37454 | -38.14851 | 37000 ft | 469 kts | 32° |
| 2026-05-03 23:26 | -8.31936 | -38.11342 | 37000 ft | 469 kts | 32° |
| 2026-05-03 23:26 | -8.26411 | -38.07830 | 37000 ft | 469 kts | 32° |
| 2026-05-03 23:27 | -8.20881 | -38.04316 | 37000 ft | 469 kts | 32° |
| 2026-05-03 23:27 | -8.15393 | -38.00830 | 37000 ft | 469 kts | 32° |
| 2026-05-03 23:28 | -8.09857 | -37.97314 | 37000 ft | 471 kts | 32° |
| 2026-05-03 23:28 | -8.04315 | -37.93796 | 37000 ft | 470 kts | 32° |
| 2026-05-03 23:29 | -7.98782 | -37.90285 | 37000 ft | 470 kts | 32° |
| 2026-05-03 23:29 | -7.93374 | -37.86854 | 37000 ft | 470 kts | 32° |
| 2026-05-03 23:30 | -7.87840 | -37.83344 | 37000 ft | 470 kts | 32° |
| 2026-05-03 23:30 | -7.82306 | -37.79836 | 37000 ft | 470 kts | 32° |
| 2026-05-03 23:31 | -7.76814 | -37.76354 | 37000 ft | 469 kts | 32° |
| 2026-05-03 23:31 | -7.71283 | -37.72850 | 37000 ft | 470 kts | 32° |
| 2026-05-03 23:32 | -7.65743 | -37.69341 | 37000 ft | 470 kts | 32° |
| 2026-05-03 23:32 | -7.60200 | -37.65831 | 37000 ft | 472 kts | 32° |
| 2026-05-03 23:33 | -7.53677 | -37.61702 | 37000 ft | 471 kts | 32° |
| 2026-05-03 23:33 | -7.42573 | -37.54676 | 37000 ft | 471 kts | 32° |
| 2026-05-03 23:34 | -7.31463 | -37.47652 | 37000 ft | 472 kts | 32° |
| 2026-05-03 23:34 | -7.20475 | -37.40708 | 37000 ft | 468 kts | 32° |
| 2026-05-03 23:35 | -7.09440 | -37.33738 | 37000 ft | 468 kts | 32° |
| 2026-05-03 23:35 | -6.98716 | -37.26364 | 37000 ft | 468 kts | 46° |
| 2026-05-03 23:36 | -6.94968 | -37.21052 | 37003 ft | 468 kts | 62° |
| 2026-05-03 23:36 | -6.91913 | -37.15243 | 37000 ft | 469 kts | 62° |
| 2026-05-03 23:36 | -6.85791 | -37.03673 | 37000 ft | 469 kts | 62° |
| 2026-05-03 23:37 | -6.82523 | -36.97497 | 36999 ft | 467 kts | 62° |
| 2026-05-03 23:37 | -6.81016 | -36.94649 | 36972 ft | 455 kts | 62° |
| 2026-05-03 23:37 | -6.79559 | -36.91897 | 36640 ft | 448 kts | 62° |
| 2026-05-03 23:38 | -6.78101 | -36.89145 | 36111 ft | 444 kts | 62° |
| 2026-05-03 23:38 | -6.76655 | -36.86414 | 35583 ft | 440 kts | 62° |
| 2026-05-03 23:38 | -6.75221 | -36.83706 | 35041 ft | 437 kts | 62° |
| 2026-05-03 23:38 | -6.73800 | -36.81024 | 34513 ft | 433 kts | 62° |
| 2026-05-03 23:39 | -6.72391 | -36.78364 | 33992 ft | 429 kts | 62° |
| 2026-05-03 23:39 | -6.70992 | -36.75724 | 33470 ft | 426 kts | 62° |
| 2026-05-03 23:39 | -6.69607 | -36.73111 | 32949 ft | 422 kts | 62° |
| 2026-05-03 23:39 | -6.68233 | -36.70518 | 32436 ft | 418 kts | 62° |
| 2026-05-03 23:40 | -6.66869 | -36.67946 | 31920 ft | 415 kts | 62° |
| 2026-05-03 23:40 | -6.65516 | -36.65394 | 31408 ft | 412 kts | 62° |
| 2026-05-03 23:40 | -6.64173 | -36.62863 | 30900 ft | 408 kts | 62° |
| 2026-05-03 23:40 | -6.62861 | -36.60388 | 30399 ft | 405 kts | 62° |
| 2026-05-03 23:41 | -6.61474 | -36.57937 | 29886 ft | 402 kts | 56° |
| 2026-05-03 23:41 | -6.59838 | -36.55675 | 29372 ft | 399 kts | 52° |
| 2026-05-03 23:41 | -6.58163 | -36.53466 | 28872 ft | 395 kts | 52° |
| 2026-05-03 23:41 | -6.56507 | -36.51267 | 28334 ft | 393 kts | 53° |
| 2026-05-03 23:42 | -6.54866 | -36.49083 | 27862 ft | 390 kts | 53° |
| 2026-05-03 23:42 | -6.53240 | -36.46919 | 27358 ft | 387 kts | 53° |
| 2026-05-03 23:42 | -6.51622 | -36.44767 | 26875 ft | 383 kts | 52° |
| 2026-05-03 23:42 | -6.50560 | -36.43356 | 26552 ft | 381 kts | 52° |
| 2026-05-03 23:43 | -6.48432 | -36.40526 | 25876 ft | 378 kts | 52° |
| 2026-05-03 23:43 | -6.47377 | -36.39125 | 25438 ft | 379 kts | 52° |
| 2026-05-03 23:43 | -6.45782 | -36.37006 | 24736 ft | 382 kts | 52° |
| 2026-05-03 23:43 | -6.43648 | -36.34171 | 23787 ft | 385 kts | 52° |
| 2026-05-03 23:44 | -6.42026 | -36.32016 | 23067 ft | 388 kts | 52° |
| 2026-05-03 23:44 | -6.40396 | -36.29852 | 22343 ft | 389 kts | 52° |
| 2026-05-03 23:44 | -6.38760 | -36.27679 | 21617 ft | 390 kts | 52° |
| 2026-05-03 23:44 | -6.37117 | -36.25498 | 20891 ft | 391 kts | 52° |
| 2026-05-03 23:45 | -6.36030 | -36.24055 | 20411 ft | 391 kts | 52° |
| 2026-05-03 23:45 | -6.34388 | -36.21876 | 19687 ft | 391 kts | 52° |
| 2026-05-03 23:45 | -6.32746 | -36.19696 | 18962 ft | 391 kts | 52° |
| 2026-05-03 23:45 | -6.31108 | -36.17522 | 18237 ft | 390 kts | 52° |
| 2026-05-03 23:46 | -6.29476 | -36.15355 | 17516 ft | 388 kts | 52° |
| 2026-05-03 23:46 | -6.27847 | -36.13194 | 16788 ft | 387 kts | 52° |
| 2026-05-03 23:46 | -6.26227 | -36.11044 | 16064 ft | 385 kts | 52° |
| 2026-05-03 23:46 | -6.24612 | -36.08903 | 15344 ft | 383 kts | 52° |
| 2026-05-03 23:47 | -6.23006 | -36.06772 | 14613 ft | 381 kts | 52° |
| 2026-05-03 23:47 | -6.21164 | -36.04329 | 13775 ft | 379 kts | 52° |
| 2026-05-03 23:47 | -6.17997 | -36.00130 | 12331 ft | 375 kts | 52° |
| 2026-05-03 23:47 | -6.14863 | -35.95975 | 10884 ft | 371 kts | 52° |
| 2026-05-03 23:48 | -6.11805 | -35.91921 | 10070 ft | 350 kts | 52° |
| 2026-05-03 23:48 | -6.10095 | -35.89654 | 9997 ft | 327 kts | 52° |
| 2026-05-03 23:48 | -6.08780 | -35.87910 | 9998 ft | 308 kts | 52° |
| 2026-05-03 23:48 | -6.07520 | -35.86240 | 9869 ft | 295 kts | 52° |
| 2026-05-03 23:49 | -6.06271 | -35.84585 | 9466 ft | 292 kts | 52° |
| 2026-05-03 23:49 | -6.05047 | -35.82963 | 9053 ft | 291 kts | 52° |
| 2026-05-03 23:49 | -6.03330 | -35.80690 | 8468 ft | 288 kts | 52° |
| 2026-05-03 23:49 | -6.00924 | -35.77503 | 7653 ft | 285 kts | 52° |
| 2026-05-03 23:50 | -5.98543 | -35.74349 | 6847 ft | 281 kts | 52° |
| 2026-05-03 23:50 | -5.96193 | -35.71238 | 6053 ft | 278 kts | 52° |
| 2026-05-03 23:50 | -5.93838 | -35.68185 | 5263 ft | 275 kts | 50° |
| 2026-05-03 23:50 | -5.91415 | -35.65234 | 4482 ft | 272 kts | 50° |
| 2026-05-03 23:51 | -5.89028 | -35.62317 | 3722 ft | 269 kts | 50° |
| 2026-05-03 23:51 | -5.86676 | -35.59424 | 2949 ft | 266 kts | 50° |
| 2026-05-03 23:51 | -5.84261 | -35.56648 | 2192 ft | 263 kts | 36° |
| 2026-05-03 23:51 | -5.82612 | -35.55885 | 1988 ft | 261 kts | 12° |
| 2026-05-03 23:52 | -5.80815 | -35.55591 | 1935 ft | 258 kts | 8° |
| 2026-05-03 23:52 | -5.79116 | -35.55321 | 1933 ft | 243 kts | 8° |
| 2026-05-03 23:52 | -5.77498 | -35.55060 | 1932 ft | 229 kts | 8° |
| 2026-05-03 23:52 | -5.75995 | -35.54722 | 1928 ft | 215 kts | 24° |
| 2026-05-03 23:53 | -5.74885 | -35.53817 | 1932 ft | 204 kts | 57° |
| 2026-05-03 23:53 | -5.74432 | -35.52468 | 1931 ft | 202 kts | 90° |
| 2026-05-03 23:53 | -5.74612 | -35.51134 | 1960 ft | 183 kts | 100° |
| 2026-05-03 23:53 | -5.74815 | -35.49974 | 1936 ft | 152 kts | 100° |
| 2026-05-03 23:54 | -5.74981 | -35.48985 | 1937 ft | 143 kts | 99° |
| 2026-05-03 23:54 | -5.75141 | -35.48012 | 1934 ft | 140 kts | 99° |
| 2026-05-03 23:54 | -5.75296 | -35.47050 | 1934 ft | 140 kts | 99° |
| 2026-05-03 23:54 | -5.75451 | -35.46086 | 1936 ft | 140 kts | 99° |
| 2026-05-03 23:55 | -5.75608 | -35.45124 | 1934 ft | 140 kts | 99° |
| 2026-05-03 23:55 | -5.75766 | -35.44162 | 1934 ft | 140 kts | 99° |
| 2026-05-03 23:55 | -5.75922 | -35.43200 | 1934 ft | 139 kts | 99° |
| 2026-05-03 23:55 | -5.76076 | -35.42245 | 1892 ft | 138 kts | 99° |
| 2026-05-03 23:56 | -5.76232 | -35.41283 | 1653 ft | 140 kts | 99° |
| 2026-05-03 23:56 | -5.76384 | -35.40342 | 1355 ft | 138 kts | 99° |
| 2026-05-03 23:56 | -5.76517 | -35.39389 | 1062 ft | 138 kts | 97° |
| 2026-05-03 23:56 | -5.76655 | -35.38420 | 587 ft | 145 kts | 100° |
| 2026-05-03 23:57 | -5.76850 | -35.37430 | 273 ft | 133 kts | 101° |
| 2026-05-03 23:57 | -5.76974 | -35.36683 | 273 ft | 88 kts | 101° |
| 2026-05-03 23:57 | -5.77032 | -35.36231 | 273 ft | 34 kts | 77° |
| 2026-05-03 23:57 | -5.76983 | -35.36057 | 275 ft | 18 kts | 68° |
| 2026-05-03 23:58 | -5.76921 | -35.36027 | 274 ft | 9 kts | 323° |
| 2026-05-03 23:58 | -5.76890 | -35.36091 | 273 ft | 12 kts | 279° |
| 2026-05-03 23:58 | -5.76889 | -35.36177 | 273 ft | 14 kts | 280° |
| 2026-05-03 23:58 | -5.76869 | -35.36286 | 277 ft | 17 kts | 280° |
| 2026-05-03 23:59 | -5.76845 | -35.36415 | 274 ft | 20 kts | 280° |
| 2026-05-03 23:59 | -5.76819 | -35.36564 | 274 ft | 23 kts | 280° |
| 2026-05-03 23:59 | -5.76789 | -35.36730 | 274 ft | 25 kts | 280° |
| 2026-05-03 23:59 | -5.76763 | -35.36911 | 274 ft | 27 kts | 278° |
| 2026-05-04 00:00 | -5.76734 | -35.37102 | 274 ft | 29 kts | 279° |
| 2026-05-04 00:00 | -5.76663 | -35.37250 | 273 ft | 18 kts | 345° |
| 2026-05-04 00:00 | -5.76559 | -35.37195 | 273 ft | 15 kts | 33° |
| 2026-05-04 00:00 | -5.76492 | -35.37149 | 273 ft | 8 kts | 36° |
| 2026-05-04 00:01 | -5.76468 | -35.37128 | 273 ft | 0 kts | 43° |